sensor_id;sensor_type;location;lat;lon;timestamp;temperature;humidity
13426;DHT22;6785;57.918;12.530;2023-06-26T00:01:31;15.60;99.90
13426;DHT22;6785;57.918;12.530;2023-06-26T00:04:00;15.60;99.90
13426;DHT22;6785;57.918;12.530;2023-06-26T00:06:28;15.50;99.90
13426;DHT22;6785;57.918;12.530;2023-06-26T00:08:55;15.50;99.90
13426;DHT22;6785;57.918;12.530;2023-06-26T00:11:24;15.50;99.90
13426;DHT22;6785;57.918;12.530;2023-06-26T00:13:52;15.40;99.90
13426;DHT22;6785;57.918;12.530;2023-06-26T00:16:19;15.40;99.90
13426;DHT22;6785;57.918;12.530;2023-06-26T00:18:46;15.40;99.90
13426;DHT22;6785;57.918;12.530;2023-06-26T00:21:14;15.40;99.90
13426;DHT22;6785;57.918;12.530;2023-06-26T00:23:41;15.40;99.90
13426;DHT22;6785;57.918;12.530;2023-06-26T00:26:08;15.40;99.90
13426;DHT22;6785;57.918;12.530;2023-06-26T00:28:35;15.40;99.90
13426;DHT22;6785;57.918;12.530;2023-06-26T00:31:02;15.40;99.90
13426;DHT22;6785;57.918;12.530;2023-06-26T00:33:29;15.20;99.90
13426;DHT22;6785;57.918;12.530;2023-06-26T00:35:56;15.20;99.90
13426;DHT22;6785;57.918;12.530;2023-06-26T00:38:24;15.20;99.90
13426;DHT22;6785;57.918;12.530;2023-06-26T00:40:51;15.20;99.90
13426;DHT22;6785;57.918;12.530;2023-06-26T00:43:20;15.10;99.90
13426;DHT22;6785;57.918;12.530;2023-06-26T00:45:47;15.00;99.90
13426;DHT22;6785;57.918;12.530;2023-06-26T00:48:14;15.00;99.90
13426;DHT22;6785;57.918;12.530;2023-06-26T00:50:41;14.90;99.90
13426;DHT22;6785;57.918;12.530;2023-06-26T00:53:09;14.90;99.90
13426;DHT22;6785;57.918;12.530;2023-06-26T00:55:39;14.90;99.90
13426;DHT22;6785;57.918;12.530;2023-06-26T00:58:06;14.80;99.90
13426;DHT22;6785;57.918;12.530;2023-06-26T01:00:33;14.90;99.90
13426;DHT22;6785;57.918;12.530;2023-06-26T01:03:01;14.90;99.90
13426;DHT22;6785;57.918;12.530;2023-06-26T01:05:28;14.90;99.90
13426;DHT22;6785;57.918;12.530;2023-06-26T01:07:57;14.90;99.90
13426;DHT22;6785;57.918;12.530;2023-06-26T01:10:25;14.90;99.90
13426;DHT22;6785;57.918;12.530;2023-06-26T01:12:57;14.90;99.90
13426;DHT22;6785;57.918;12.530;2023-06-26T01:15:24;14.80;99.90
13426;DHT22;6785;57.918;12.530;2023-06-26T01:17:51;14.80;99.90
13426;DHT22;6785;57.918;12.530;2023-06-26T01:20:19;14.80;99.90
13426;DHT22;6785;57.918;12.530;2023-06-26T01:22:51;14.70;99.90
13426;DHT22;6785;57.918;12.530;2023-06-26T01:25:52;14.70;99.90
13426;DHT22;6785;57.918;12.530;2023-06-26T01:28:32;14.60;99.90
13426;DHT22;6785;57.918;12.530;2023-06-26T01:31:02;14.60;99.90
13426;DHT22;6785;57.918;12.530;2023-06-26T01:33:31;14.60;99.90
13426;DHT22;6785;57.918;12.530;2023-06-26T01:35:59;14.50;99.90
13426;DHT22;6785;57.918;12.530;2023-06-26T01:38:26;14.50;99.90
13426;DHT22;6785;57.918;12.530;2023-06-26T01:40:54;14.50;99.90
13426;DHT22;6785;57.918;12.530;2023-06-26T01:43:26;14.50;99.90
13426;DHT22;6785;57.918;12.530;2023-06-26T01:46:01;14.50;99.90
13426;DHT22;6785;57.918;12.530;2023-06-26T01:48:37;14.50;99.90
13426;DHT22;6785;57.918;12.530;2023-06-26T01:51:08;14.50;99.90
13426;DHT22;6785;57.918;12.530;2023-06-26T01:53:40;14.50;99.90
13426;DHT22;6785;57.918;12.530;2023-06-26T01:56:13;14.50;99.90
13426;DHT22;6785;57.918;12.530;2023-06-26T01:58:46;14.50;99.90
13426;DHT22;6785;57.918;12.530;2023-06-26T02:01:15;14.50;99.90
13426;DHT22;6785;57.918;12.530;2023-06-26T02:03:42;14.50;99.90
13426;DHT22;6785;57.918;12.530;2023-06-26T02:06:09;14.40;99.90
13426;DHT22;6785;57.918;12.530;2023-06-26T02:08:36;14.40;99.90
13426;DHT22;6785;57.918;12.530;2023-06-26T02:11:03;14.30;99.90
13426;DHT22;6785;57.918;12.530;2023-06-26T02:13:30;14.20;99.90
13426;DHT22;6785;57.918;12.530;2023-06-26T02:15:57;14.20;99.90
13426;DHT22;6785;57.918;12.530;2023-06-26T02:18:26;14.20;99.90
13426;DHT22;6785;57.918;12.530;2023-06-26T02:20:53;14.20;99.90
13426;DHT22;6785;57.918;12.530;2023-06-26T02:23:20;14.20;99.90
13426;DHT22;6785;57.918;12.530;2023-06-26T02:25:47;14.20;99.90
13426;DHT22;6785;57.918;12.530;2023-06-26T02:28:14;14.10;99.90
13426;DHT22;6785;57.918;12.530;2023-06-26T02:30:41;14.00;99.90
13426;DHT22;6785;57.918;12.530;2023-06-26T02:33:08;14.00;99.90
13426;DHT22;6785;57.918;12.530;2023-06-26T02:35:36;14.00;99.90
13426;DHT22;6785;57.918;12.530;2023-06-26T02:38:03;13.90;99.90
13426;DHT22;6785;57.918;12.530;2023-06-26T02:40:30;14.00;99.90
13426;DHT22;6785;57.918;12.530;2023-06-26T02:42:58;14.00;99.90
13426;DHT22;6785;57.918;12.530;2023-06-26T02:45:25;14.00;99.90
13426;DHT22;6785;57.918;12.530;2023-06-26T02:47:52;14.00;99.90
13426;DHT22;6785;57.918;12.530;2023-06-26T02:50:19;13.90;99.90
13426;DHT22;6785;57.918;12.530;2023-06-26T02:52:47;14.00;99.90
13426;DHT22;6785;57.918;12.530;2023-06-26T02:55:17;14.00;99.90
13426;DHT22;6785;57.918;12.530;2023-06-26T02:57:45;13.90;99.90
13426;DHT22;6785;57.918;12.530;2023-06-26T03:00:13;13.90;99.90
13426;DHT22;6785;57.918;12.530;2023-06-26T03:02:40;14.00;99.90
13426;DHT22;6785;57.918;12.530;2023-06-26T03:05:07;14.00;99.90
13426;DHT22;6785;57.918;12.530;2023-06-26T03:07:34;14.10;99.90
13426;DHT22;6785;57.918;12.530;2023-06-26T03:10:03;14.10;99.90
13426;DHT22;6785;57.918;12.530;2023-06-26T03:12:31;14.10;99.90
13426;DHT22;6785;57.918;12.530;2023-06-26T03:14:57;14.10;99.90
13426;DHT22;6785;57.918;12.530;2023-06-26T03:17:24;14.20;99.90
13426;DHT22;6785;57.918;12.530;2023-06-26T03:19:51;14.20;99.90
13426;DHT22;6785;57.918;12.530;2023-06-26T03:22:18;14.20;99.90
13426;DHT22;6785;57.918;12.530;2023-06-26T03:24:45;14.20;99.90
13426;DHT22;6785;57.918;12.530;2023-06-26T03:27:13;14.20;99.90
13426;DHT22;6785;57.918;12.530;2023-06-26T03:29:41;14.30;99.90
13426;DHT22;6785;57.918;12.530;2023-06-26T03:32:08;14.30;99.90
13426;DHT22;6785;57.918;12.530;2023-06-26T03:34:35;14.30;99.90
13426;DHT22;6785;57.918;12.530;2023-06-26T03:37:02;14.40;99.90
13426;DHT22;6785;57.918;12.530;2023-06-26T03:39:29;14.40;99.90
13426;DHT22;6785;57.918;12.530;2023-06-26T03:41:56;14.50;99.90
13426;DHT22;6785;57.918;12.530;2023-06-26T03:44:28;14.60;99.90
13426;DHT22;6785;57.918;12.530;2023-06-26T03:46:55;14.60;99.90
13426;DHT22;6785;57.918;12.530;2023-06-26T03:49:22;14.70;99.90
13426;DHT22;6785;57.918;12.530;2023-06-26T03:51:49;14.70;99.90
13426;DHT22;6785;57.918;12.530;2023-06-26T03:54:17;14.80;99.90
13426;DHT22;6785;57.918;12.530;2023-06-26T03:56:44;14.90;99.90
13426;DHT22;6785;57.918;12.530;2023-06-26T03:59:11;14.90;99.90
13426;DHT22;6785;57.918;12.530;2023-06-26T04:01:39;15.00;99.90
13426;DHT22;6785;57.918;12.530;2023-06-26T04:04:06;15.10;99.90
13426;DHT22;6785;57.918;12.530;2023-06-26T04:06:33;15.20;99.90
13426;DHT22;6785;57.918;12.530;2023-06-26T04:09:00;15.20;99.90
13426;DHT22;6785;57.918;12.530;2023-06-26T04:11:27;15.40;99.90
13426;DHT22;6785;57.918;12.530;2023-06-26T04:13:54;15.40;99.90
13426;DHT22;6785;57.918;12.530;2023-06-26T04:16:22;15.50;99.90
13426;DHT22;6785;57.918;12.530;2023-06-26T04:18:52;15.60;99.90
13426;DHT22;6785;57.918;12.530;2023-06-26T04:21:20;15.70;99.90
13426;DHT22;6785;57.918;12.530;2023-06-26T04:23:47;15.80;99.90
13426;DHT22;6785;57.918;12.530;2023-06-26T04:26:14;15.90;99.90
13426;DHT22;6785;57.918;12.530;2023-06-26T04:28:41;16.00;99.90
13426;DHT22;6785;57.918;12.530;2023-06-26T04:31:08;16.10;99.90
13426;DHT22;6785;57.918;12.530;2023-06-26T04:33:36;16.20;99.90
13426;DHT22;6785;57.918;12.530;2023-06-26T04:36:05;16.30;99.90
13426;DHT22;6785;57.918;12.530;2023-06-26T04:38:33;16.40;99.90
13426;DHT22;6785;57.918;12.530;2023-06-26T04:41:00;16.50;99.90
13426;DHT22;6785;57.918;12.530;2023-06-26T04:43:27;16.60;99.90
13426;DHT22;6785;57.918;12.530;2023-06-26T04:45:55;16.70;99.90
13426;DHT22;6785;57.918;12.530;2023-06-26T04:48:22;16.90;99.90
13426;DHT22;6785;57.918;12.530;2023-06-26T04:50:49;17.00;99.90
13426;DHT22;6785;57.918;12.530;2023-06-26T04:53:20;17.10;99.90
13426;DHT22;6785;57.918;12.530;2023-06-26T04:55:48;17.20;99.90
13426;DHT22;6785;57.918;12.530;2023-06-26T04:58:15;17.30;99.90
13426;DHT22;6785;57.918;12.530;2023-06-26T05:00:42;17.30;99.90
13426;DHT22;6785;57.918;12.530;2023-06-26T05:03:10;17.40;99.90
13426;DHT22;6785;57.918;12.530;2023-06-26T05:05:37;17.50;99.90
13426;DHT22;6785;57.918;12.530;2023-06-26T05:08:14;17.70;99.90
13426;DHT22;6785;57.918;12.530;2023-06-26T05:10:43;17.80;99.90
13426;DHT22;6785;57.918;12.530;2023-06-26T05:13:11;17.90;99.90
13426;DHT22;6785;57.918;12.530;2023-06-26T05:15:40;18.00;99.90
13426;DHT22;6785;57.918;12.530;2023-06-26T05:18:07;18.20;99.90
13426;DHT22;6785;57.918;12.530;2023-06-26T05:20:34;18.30;99.90
13426;DHT22;6785;57.918;12.530;2023-06-26T05:23:02;18.50;99.90
13426;DHT22;6785;57.918;12.530;2023-06-26T05:25:30;18.60;99.90
13426;DHT22;6785;57.918;12.530;2023-06-26T05:27:59;18.70;99.90
13426;DHT22;6785;57.918;12.530;2023-06-26T05:30:27;18.80;99.90
13426;DHT22;6785;57.918;12.530;2023-06-26T05:32:58;18.90;99.90
13426;DHT22;6785;57.918;12.530;2023-06-26T05:35:28;19.00;99.90
13426;DHT22;6785;57.918;12.530;2023-06-26T05:37:56;19.20;99.90
13426;DHT22;6785;57.918;12.530;2023-06-26T05:40:25;19.40;99.90
13426;DHT22;6785;57.918;12.530;2023-06-26T05:42:52;19.50;99.90
13426;DHT22;6785;57.918;12.530;2023-06-26T05:45:21;19.60;99.90
13426;DHT22;6785;57.918;12.530;2023-06-26T05:47:48;19.70;99.90
13426;DHT22;6785;57.918;12.530;2023-06-26T05:50:17;19.80;99.90
13426;DHT22;6785;57.918;12.530;2023-06-26T05:52:46;19.80;99.90
13426;DHT22;6785;57.918;12.530;2023-06-26T05:55:14;19.90;99.90
13426;DHT22;6785;57.918;12.530;2023-06-26T05:57:41;20.00;99.90
13426;DHT22;6785;57.918;12.530;2023-06-26T06:00:10;20.10;99.90
13426;DHT22;6785;57.918;12.530;2023-06-26T06:02:40;20.30;99.90
13426;DHT22;6785;57.918;12.530;2023-06-26T06:05:08;20.50;99.90
13426;DHT22;6785;57.918;12.530;2023-06-26T06:07:36;20.60;99.90
13426;DHT22;6785;57.918;12.530;2023-06-26T06:10:04;20.70;99.90
13426;DHT22;6785;57.918;12.530;2023-06-26T06:12:31;20.80;99.90
13426;DHT22;6785;57.918;12.530;2023-06-26T06:14:58;20.90;99.90
13426;DHT22;6785;57.918;12.530;2023-06-26T06:17:25;21.10;99.90
13426;DHT22;6785;57.918;12.530;2023-06-26T06:22:26;21.50;99.90
13426;DHT22;6785;57.918;12.530;2023-06-26T06:24:53;21.60;99.90
13426;DHT22;6785;57.918;12.530;2023-06-26T06:27:20;21.80;99.90
13426;DHT22;6785;57.918;12.530;2023-06-26T06:29:47;22.00;99.90
13426;DHT22;6785;57.918;12.530;2023-06-26T06:32:14;22.10;99.90
13426;DHT22;6785;57.918;12.530;2023-06-26T06:34:41;22.30;99.90
13426;DHT22;6785;57.918;12.530;2023-06-26T06:37:08;22.50;99.90
13426;DHT22;6785;57.918;12.530;2023-06-26T06:39:36;22.70;99.90
13426;DHT22;6785;57.918;12.530;2023-06-26T06:42:04;22.90;99.90
13426;DHT22;6785;57.918;12.530;2023-06-26T06:44:31;23.10;99.90
13426;DHT22;6785;57.918;12.530;2023-06-26T06:46:58;23.40;99.90
13426;DHT22;6785;57.918;12.530;2023-06-26T06:49:25;23.50;99.90
13426;DHT22;6785;57.918;12.530;2023-06-26T06:51:52;23.70;99.90
13426;DHT22;6785;57.918;12.530;2023-06-26T06:54:19;23.80;99.90
13426;DHT22;6785;57.918;12.530;2023-06-26T06:56:48;23.90;99.90
13426;DHT22;6785;57.918;12.530;2023-06-26T06:59:15;23.80;99.90
13426;DHT22;6785;57.918;12.530;2023-06-26T07:01:42;24.00;99.90
13426;DHT22;6785;57.918;12.530;2023-06-26T07:04:09;24.20;99.90
13426;DHT22;6785;57.918;12.530;2023-06-26T07:06:36;24.30;99.90
13426;DHT22;6785;57.918;12.530;2023-06-26T07:09:03;24.50;99.90
13426;DHT22;6785;57.918;12.530;2023-06-26T07:11:31;24.80;99.90
13426;DHT22;6785;57.918;12.530;2023-06-26T07:14:00;25.10;99.90
13426;DHT22;6785;57.918;12.530;2023-06-26T07:16:27;25.10;99.90
13426;DHT22;6785;57.918;12.530;2023-06-26T07:18:54;25.40;99.90
13426;DHT22;6785;57.918;12.530;2023-06-26T07:21:21;25.50;99.90
13426;DHT22;6785;57.918;12.530;2023-06-26T07:23:47;25.60;99.90
13426;DHT22;6785;57.918;12.530;2023-06-26T07:26:15;25.60;99.90
13426;DHT22;6785;57.918;12.530;2023-06-26T07:28:42;25.80;99.90
13426;DHT22;6785;57.918;12.530;2023-06-26T07:31:10;25.80;99.90
13426;DHT22;6785;57.918;12.530;2023-06-26T07:33:37;25.60;99.90
13426;DHT22;6785;57.918;12.530;2023-06-26T07:36:04;25.60;99.90
13426;DHT22;6785;57.918;12.530;2023-06-26T07:38:31;26.00;99.90
13426;DHT22;6785;57.918;12.530;2023-06-26T07:40:58;26.10;99.90
13426;DHT22;6785;57.918;12.530;2023-06-26T07:43:25;26.10;99.90
13426;DHT22;6785;57.918;12.530;2023-06-26T07:45:52;26.30;99.90
13426;DHT22;6785;57.918;12.530;2023-06-26T07:48:21;26.50;99.90
13426;DHT22;6785;57.918;12.530;2023-06-26T07:50:48;26.50;99.90
13426;DHT22;6785;57.918;12.530;2023-06-26T07:53:15;26.50;99.90
13426;DHT22;6785;57.918;12.530;2023-06-26T07:55:42;26.50;99.90
13426;DHT22;6785;57.918;12.530;2023-06-26T07:58:09;26.60;99.90
13426;DHT22;6785;57.918;12.530;2023-06-26T08:00:36;26.80;99.90
13426;DHT22;6785;57.918;12.530;2023-06-26T08:03:03;27.00;99.90
13426;DHT22;6785;57.918;12.530;2023-06-26T08:05:32;27.10;99.90
13426;DHT22;6785;57.918;12.530;2023-06-26T08:07:59;27.20;99.90
13426;DHT22;6785;57.918;12.530;2023-06-26T08:10:28;27.50;99.90
13426;DHT22;6785;57.918;12.530;2023-06-26T08:12:56;27.60;99.90
13426;DHT22;6785;57.918;12.530;2023-06-26T08:15:24;27.60;99.90
13426;DHT22;6785;57.918;12.530;2023-06-26T08:17:50;27.50;99.90
13426;DHT22;6785;57.918;12.530;2023-06-26T08:20:18;27.40;99.90
13426;DHT22;6785;57.918;12.530;2023-06-26T08:22:47;27.60;99.90
13426;DHT22;6785;57.918;12.530;2023-06-26T08:25:16;27.80;99.90
13426;DHT22;6785;57.918;12.530;2023-06-26T08:27:43;27.90;99.90
13426;DHT22;6785;57.918;12.530;2023-06-26T08:30:10;27.70;99.90
13426;DHT22;6785;57.918;12.530;2023-06-26T08:32:39;27.60;99.90
13426;DHT22;6785;57.918;12.530;2023-06-26T08:35:07;27.70;99.90
13426;DHT22;6785;57.918;12.530;2023-06-26T08:37:35;27.50;99.90
13426;DHT22;6785;57.918;12.530;2023-06-26T08:40:05;27.20;99.90
13426;DHT22;6785;57.918;12.530;2023-06-26T08:42:34;27.30;99.90
13426;DHT22;6785;57.918;12.530;2023-06-26T08:45:01;27.00;99.90
13426;DHT22;6785;57.918;12.530;2023-06-26T08:47:30;26.90;99.90
13426;DHT22;6785;57.918;12.530;2023-06-26T08:50:07;27.10;99.90
13426;DHT22;6785;57.918;12.530;2023-06-26T08:52:48;27.20;99.90
13426;DHT22;6785;57.918;12.530;2023-06-26T08:55:23;27.50;99.90
13426;DHT22;6785;57.918;12.530;2023-06-26T08:57:53;27.50;99.90
13426;DHT22;6785;57.918;12.530;2023-06-26T09:00:20;27.50;99.90
13426;DHT22;6785;57.918;12.530;2023-06-26T09:02:48;27.00;99.90
13426;DHT22;6785;57.918;12.530;2023-06-26T09:05:15;26.30;99.90
13426;DHT22;6785;57.918;12.530;2023-06-26T09:07:42;26.10;99.90
13426;DHT22;6785;57.918;12.530;2023-06-26T09:10:11;26.10;99.90
13426;DHT22;6785;57.918;12.530;2023-06-26T09:12:46;26.40;99.90
13426;DHT22;6785;57.918;12.530;2023-06-26T09:15:14;26.30;99.90
13426;DHT22;6785;57.918;12.530;2023-06-26T09:17:42;26.30;99.90
13426;DHT22;6785;57.918;12.530;2023-06-26T09:20:09;26.70;99.90
13426;DHT22;6785;57.918;12.530;2023-06-26T09:22:38;27.00;99.90
13426;DHT22;6785;57.918;12.530;2023-06-26T09:25:08;27.30;99.90
13426;DHT22;6785;57.918;12.530;2023-06-26T09:27:35;27.50;99.90
13426;DHT22;6785;57.918;12.530;2023-06-26T09:30:06;27.60;99.90
13426;DHT22;6785;57.918;12.530;2023-06-26T09:32:34;27.60;99.90
13426;DHT22;6785;57.918;12.530;2023-06-26T09:35:04;27.50;99.90
13426;DHT22;6785;57.918;12.530;2023-06-26T09:37:32;27.60;99.90
13426;DHT22;6785;57.918;12.530;2023-06-26T09:40:01;27.80;99.90
13426;DHT22;6785;57.918;12.530;2023-06-26T09:42:29;27.90;99.90
13426;DHT22;6785;57.918;12.530;2023-06-26T09:44:56;27.70;99.90
13426;DHT22;6785;57.918;12.530;2023-06-26T09:47:24;27.30;99.90
13426;DHT22;6785;57.918;12.530;2023-06-26T09:49:51;27.40;99.90
13426;DHT22;6785;57.918;12.530;2023-06-26T09:52:20;27.40;99.90
13426;DHT22;6785;57.918;12.530;2023-06-26T09:54:47;27.60;99.90
13426;DHT22;6785;57.918;12.530;2023-06-26T09:57:16;27.60;99.90
13426;DHT22;6785;57.918;12.530;2023-06-26T09:59:45;27.80;99.90
13426;DHT22;6785;57.918;12.530;2023-06-26T10:02:12;28.00;99.90
13426;DHT22;6785;57.918;12.530;2023-06-26T10:04:40;28.00;99.90
13426;DHT22;6785;57.918;12.530;2023-06-26T10:07:10;27.70;99.90
13426;DHT22;6785;57.918;12.530;2023-06-26T10:09:45;27.30;99.90
13426;DHT22;6785;57.918;12.530;2023-06-26T10:12:19;27.30;99.90
13426;DHT22;6785;57.918;12.530;2023-06-26T10:14:52;27.60;99.90
13426;DHT22;6785;57.918;12.530;2023-06-26T10:17:20;27.40;99.90
13426;DHT22;6785;57.918;12.530;2023-06-26T10:19:54;27.60;99.90
13426;DHT22;6785;57.918;12.530;2023-06-26T10:22:24;27.80;99.90
13426;DHT22;6785;57.918;12.530;2023-06-26T10:25:00;27.50;99.90
13426;DHT22;6785;57.918;12.530;2023-06-26T10:27:35;27.20;99.90
13426;DHT22;6785;57.918;12.530;2023-06-26T10:30:11;27.40;99.90
13426;DHT22;6785;57.918;12.530;2023-06-26T10:32:40;27.60;99.90
13426;DHT22;6785;57.918;12.530;2023-06-26T10:35:10;27.80;99.90
13426;DHT22;6785;57.918;12.530;2023-06-26T10:37:41;27.90;99.90
13426;DHT22;6785;57.918;12.530;2023-06-26T10:40:09;27.90;99.70
13426;DHT22;6785;57.918;12.530;2023-06-26T10:42:38;27.80;99.10
13426;DHT22;6785;57.918;12.530;2023-06-26T10:45:10;27.90;99.90
13426;DHT22;6785;57.918;12.530;2023-06-26T10:47:41;28.20;99.30
13426;DHT22;6785;57.918;12.530;2023-06-26T10:50:28;28.10;98.70
13426;DHT22;6785;57.918;12.530;2023-06-26T10:53:11;28.30;99.70
13426;DHT22;6785;57.918;12.530;2023-06-26T10:55:48;28.40;99.70
13426;DHT22;6785;57.918;12.530;2023-06-26T11:01:55;28.50;97.30
13426;DHT22;6785;57.918;12.530;2023-06-26T11:04:37;28.40;97.80
13426;DHT22;6785;57.918;12.530;2023-06-26T11:07:20;28.40;97.80
13426;DHT22;6785;57.918;12.530;2023-06-26T11:09:58;28.20;98.30
13426;DHT22;6785;57.918;12.530;2023-06-26T11:12:37;28.20;98.60
13426;DHT22;6785;57.918;12.530;2023-06-26T11:15:08;28.30;97.00
13426;DHT22;6785;57.918;12.530;2023-06-26T11:17:36;28.30;96.90
13426;DHT22;6785;57.918;12.530;2023-06-26T11:20:05;28.40;96.90
13426;DHT22;6785;57.918;12.530;2023-06-26T11:22:37;28.40;96.90
13426;DHT22;6785;57.918;12.530;2023-06-26T11:25:06;28.50;97.30
13426;DHT22;6785;57.918;12.530;2023-06-26T11:27:38;28.60;97.20
13426;DHT22;6785;57.918;12.530;2023-06-26T11:30:07;28.80;95.60
13426;DHT22;6785;57.918;12.530;2023-06-26T11:32:36;28.80;94.20
13426;DHT22;6785;57.918;12.530;2023-06-26T11:35:04;28.70;96.30
13426;DHT22;6785;57.918;12.530;2023-06-26T11:37:36;28.70;93.80
13426;DHT22;6785;57.918;12.530;2023-06-26T11:40:16;28.60;94.80
13426;DHT22;6785;57.918;12.530;2023-06-26T11:42:44;28.60;93.90
13426;DHT22;6785;57.918;12.530;2023-06-26T11:45:11;29.00;93.70
13426;DHT22;6785;57.918;12.530;2023-06-26T11:47:39;29.10;94.50
13426;DHT22;6785;57.918;12.530;2023-06-26T11:50:06;29.20;93.20
13426;DHT22;6785;57.918;12.530;2023-06-26T11:52:33;29.30;94.30
13426;DHT22;6785;57.918;12.530;2023-06-26T11:55:01;29.00;93.30
13426;DHT22;6785;57.918;12.530;2023-06-26T11:57:30;28.80;93.40
13426;DHT22;6785;57.918;12.530;2023-06-26T11:59:57;28.70;94.30
13426;DHT22;6785;57.918;12.530;2023-06-26T12:02:25;29.00;92.70
13426;DHT22;6785;57.918;12.530;2023-06-26T12:04:53;28.90;92.60
13426;DHT22;6785;57.918;12.530;2023-06-26T12:07:20;29.00;92.80
13426;DHT22;6785;57.918;12.530;2023-06-26T12:09:48;29.00;92.60
13426;DHT22;6785;57.918;12.530;2023-06-26T12:12:18;29.00;93.30
13426;DHT22;6785;57.918;12.530;2023-06-26T12:14:45;28.80;93.80
13426;DHT22;6785;57.918;12.530;2023-06-26T12:17:13;28.70;94.80
13426;DHT22;6785;57.918;12.530;2023-06-26T12:19:44;28.90;93.00
13426;DHT22;6785;57.918;12.530;2023-06-26T12:22:13;29.10;92.40
13426;DHT22;6785;57.918;12.530;2023-06-26T12:24:40;29.30;91.80
13426;DHT22;6785;57.918;12.530;2023-06-26T12:27:09;29.60;91.10
13426;DHT22;6785;57.918;12.530;2023-06-26T12:29:39;29.70;91.40
13426;DHT22;6785;57.918;12.530;2023-06-26T12:32:11;29.70;91.20
13426;DHT22;6785;57.918;12.530;2023-06-26T12:34:40;29.50;92.50
13426;DHT22;6785;57.918;12.530;2023-06-26T12:37:08;29.40;91.10
13426;DHT22;6785;57.918;12.530;2023-06-26T12:39:47;29.40;91.30
13426;DHT22;6785;57.918;12.530;2023-06-26T12:42:17;29.50;92.10
13426;DHT22;6785;57.918;12.530;2023-06-26T12:44:47;29.70;91.90
13426;DHT22;6785;57.918;12.530;2023-06-26T12:47:15;29.60;92.80
13426;DHT22;6785;57.918;12.530;2023-06-26T12:49:44;29.30;91.50
13426;DHT22;6785;57.918;12.530;2023-06-26T12:52:14;29.00;93.90
13426;DHT22;6785;57.918;12.530;2023-06-26T12:54:43;28.80;92.40
13426;DHT22;6785;57.918;12.530;2023-06-26T12:57:12;28.40;94.40
13426;DHT22;6785;57.918;12.530;2023-06-26T12:59:40;28.40;93.60
13426;DHT22;6785;57.918;12.530;2023-06-26T13:02:09;28.40;93.90
13426;DHT22;6785;57.918;12.530;2023-06-26T13:04:45;28.40;93.40
13426;DHT22;6785;57.918;12.530;2023-06-26T13:07:12;28.30;93.30
13426;DHT22;6785;57.918;12.530;2023-06-26T13:09:39;28.20;93.70
13426;DHT22;6785;57.918;12.530;2023-06-26T13:12:07;28.20;93.40
13426;DHT22;6785;57.918;12.530;2023-06-26T13:14:34;28.10;93.80
13426;DHT22;6785;57.918;12.530;2023-06-26T13:17:02;28.10;93.50
13426;DHT22;6785;57.918;12.530;2023-06-26T13:19:30;28.00;94.60
13426;DHT22;6785;57.918;12.530;2023-06-26T13:21:57;28.00;94.10
13426;DHT22;6785;57.918;12.530;2023-06-26T13:24:25;27.90;93.80
13426;DHT22;6785;57.918;12.530;2023-06-26T13:26:52;27.90;94.50
13426;DHT22;6785;57.918;12.530;2023-06-26T13:29:19;27.90;94.10
13426;DHT22;6785;57.918;12.530;2023-06-26T13:31:46;27.90;94.60
13426;DHT22;6785;57.918;12.530;2023-06-26T13:34:20;27.70;94.30
13426;DHT22;6785;57.918;12.530;2023-06-26T13:36:50;27.70;94.30
13426;DHT22;6785;57.918;12.530;2023-06-26T13:39:17;27.80;95.50
13426;DHT22;6785;57.918;12.530;2023-06-26T13:41:44;27.90;94.20
13426;DHT22;6785;57.918;12.530;2023-06-26T13:44:11;27.90;93.90
13426;DHT22;6785;57.918;12.530;2023-06-26T13:46:40;28.10;94.50
13426;DHT22;6785;57.918;12.530;2023-06-26T13:49:10;28.20;93.60
13426;DHT22;6785;57.918;12.530;2023-06-26T13:51:36;28.20;93.80
13426;DHT22;6785;57.918;12.530;2023-06-26T13:54:07;28.30;92.90
13426;DHT22;6785;57.918;12.530;2023-06-26T13:56:34;28.20;93.00
13426;DHT22;6785;57.918;12.530;2023-06-26T13:59:01;28.20;93.60
13426;DHT22;6785;57.918;12.530;2023-06-26T14:01:29;28.30;93.20
13426;DHT22;6785;57.918;12.530;2023-06-26T14:03:56;28.10;94.60
13426;DHT22;6785;57.918;12.530;2023-06-26T14:06:23;28.10;95.00
13426;DHT22;6785;57.918;12.530;2023-06-26T14:08:50;28.20;94.40
13426;DHT22;6785;57.918;12.530;2023-06-26T14:11:18;28.20;93.70
13426;DHT22;6785;57.918;12.530;2023-06-26T14:13:45;28.20;94.30
13426;DHT22;6785;57.918;12.530;2023-06-26T14:16:12;28.10;94.40
13426;DHT22;6785;57.918;12.530;2023-06-26T14:18:40;28.00;94.10
13426;DHT22;6785;57.918;12.530;2023-06-26T14:21:07;28.00;95.00
13426;DHT22;6785;57.918;12.530;2023-06-26T14:23:35;27.90;94.90
13426;DHT22;6785;57.918;12.530;2023-06-26T14:26:02;27.80;95.20
13426;DHT22;6785;57.918;12.530;2023-06-26T14:28:30;27.80;95.50
13426;DHT22;6785;57.918;12.530;2023-06-26T14:30:57;27.80;95.50
13426;DHT22;6785;57.918;12.530;2023-06-26T14:33:24;27.60;95.90
13426;DHT22;6785;57.918;12.530;2023-06-26T14:35:51;27.50;96.10
13426;DHT22;6785;57.918;12.530;2023-06-26T14:38:18;27.30;96.20
13426;DHT22;6785;57.918;12.530;2023-06-26T14:40:45;27.20;96.40
13426;DHT22;6785;57.918;12.530;2023-06-26T14:43:12;27.10;96.80
13426;DHT22;6785;57.918;12.530;2023-06-26T14:45:42;27.00;97.20
13426;DHT22;6785;57.918;12.530;2023-06-26T14:48:09;26.90;97.40
13426;DHT22;6785;57.918;12.530;2023-06-26T14:50:36;26.80;97.80
13426;DHT22;6785;57.918;12.530;2023-06-26T14:53:03;26.60;97.60
13426;DHT22;6785;57.918;12.530;2023-06-26T14:55:30;26.00;99.90
13426;DHT22;6785;57.918;12.530;2023-06-26T14:57:57;25.10;99.90
13426;DHT22;6785;57.918;12.530;2023-06-26T15:00:24;24.50;99.90
13426;DHT22;6785;57.918;12.530;2023-06-26T15:02:53;24.20;99.90
13426;DHT22;6785;57.918;12.530;2023-06-26T15:05:20;23.30;99.90
13426;DHT22;6785;57.918;12.530;2023-06-26T15:07:47;22.70;99.90
13426;DHT22;6785;57.918;12.530;2023-06-26T15:10:15;22.30;99.90
13426;DHT22;6785;57.918;12.530;2023-06-26T15:12:42;21.90;99.90
13426;DHT22;6785;57.918;12.530;2023-06-26T15:15:10;21.50;99.90
13426;DHT22;6785;57.918;12.530;2023-06-26T15:17:37;21.20;99.90
13426;DHT22;6785;57.918;12.530;2023-06-26T15:20:12;21.10;99.90
13426;DHT22;6785;57.918;12.530;2023-06-26T15:22:39;20.90;99.90
13426;DHT22;6785;57.918;12.530;2023-06-26T15:25:07;20.90;99.90
13426;DHT22;6785;57.918;12.530;2023-06-26T15:27:34;20.90;99.90
13426;DHT22;6785;57.918;12.530;2023-06-26T15:30:01;20.90;99.90
13426;DHT22;6785;57.918;12.530;2023-06-26T15:32:28;20.90;99.90
13426;DHT22;6785;57.918;12.530;2023-06-26T15:34:55;20.90;99.90
13426;DHT22;6785;57.918;12.530;2023-06-26T15:37:23;20.80;99.90
13426;DHT22;6785;57.918;12.530;2023-06-26T15:39:50;20.70;99.90
13426;DHT22;6785;57.918;12.530;2023-06-26T15:42:17;20.60;99.90
13426;DHT22;6785;57.918;12.530;2023-06-26T15:44:44;20.50;99.90